Time;durP1;ratioP1;P1;durP2;ratioP2;P2;SDS_P1;SDS_P2;PMS_P1;PMS_P2;Temp;Humidity;BMP_temperature;BMP_pressure;BME280_temperature;BME280_humidity;BME280_pressure;Samples;Min_cycle;Max_cycle;Signal;HPM_P1;HPM_P2
2022/01/11 00:00:16;;;;;;;;;22.00;19.50;;;;;;;;4664775;30;29666;-94
2022/01/11 00:02:44;;;;;;;;;26.50;22.75;;;;;;;;4662795;30;28426;-92
2022/01/11 00:05:19;;;;;;;;;33.50;22.50;;;;;;;;4664746;30;28361;-93
2022/01/11 00:07:44;;;;;;;;;24.00;16.00;;;;;;;;4665708;30;28920;-94
2022/01/11 00:10:13;;;;;;;;;33.00;16.75;;;;;;;;4663556;30;29691;-94
2022/01/11 00:12:38;;;;;;;;;33.50;18.50;;;;;;;;4664842;30;28573;-93
2022/01/11 00:15:04;;;;;;;;;19.67;17.67;;;;;;;;4664680;30;28554;-93
2022/01/11 00:17:29;;;;;;;;;28.50;15.75;;;;;;;;4666688;30;28320;-95
2022/01/11 00:19:54;;;;;;;;;25.67;17.33;;;;;;;;4665001;30;29914;-92
2022/01/11 00:22:25;;;;;;;;;23.00;14.25;;;;;;;;4665080;30;28651;-93
2022/01/11 00:25:18;;;;;;;;;28.00;18.00;;;;;;;;4673638;30;28560;-92
2022/01/11 00:27:43;;;;;;;;;16.75;12.75;;;;;;;;4648535;30;28643;-94
2022/01/11 00:30:09;;;;;;;;;21.33;18.00;;;;;;;;4658932;30;29693;-94
2022/01/11 00:32:42;;;;;;;;;31.50;18.75;;;;;;;;4664638;30;28991;-94
2022/01/11 00:35:11;;;;;;;;;22.25;16.00;;;;;;;;4665707;30;28263;-93
2022/01/11 00:37:36;;;;;;;;;24.00;16.75;;;;;;;;4665755;30;28642;-94
2022/01/11 00:40:04;;;;;;;;;20.00;18.00;;;;;;;;4664767;30;29923;-94
2022/01/11 00:42:29;;;;;;;;;25.50;17.00;;;;;;;;4665428;30;28722;-94
2022/01/11 00:44:55;;;;;;;;;25.25;20.00;;;;;;;;4665061;30;28376;-94
2022/01/11 00:47:20;;;;;;;;;20.50;16.25;;;;;;;;4666580;30;28383;-92
2022/01/11 00:50:18;;;;;;;;;34.25;19.75;;;;;;;;4664695;30;30144;-93
2022/01/11 00:52:53;;;;;;;;;29.25;19.25;;;;;;;;4664647;30;28560;-94
2022/01/11 00:55:19;;;;;;;;;32.00;22.25;;;;;;;;4664952;30;28365;-94
2022/01/11 00:57:44;;;;;;;;;25.00;17.67;;;;;;;;4665372;30;28685;-94
2022/01/11 01:00:11;;;;;;;;;25.25;20.00;;;;;;;;4653044;30;30243;-93
2022/01/11 01:02:40;;;;;;;;;24.75;19.25;;;;;;;;4665369;30;29437;-94
2022/01/11 01:05:05;;;;;;;;;31.75;23.00;;;;;;;;4654108;30;28315;-95
2022/01/11 01:07:31;;;;;;;;;29.50;20.75;;;;;;;;4663313;30;28496;-94
2022/01/11 01:12:24;;;;;;;;;28.50;20.75;;;;;;;;4665030;30;28257;-94
2022/01/11 01:14:49;;;;;;;;;39.67;23.67;;;;;;;;4666893;30;28533;-93
2022/01/11 01:17:15;;;;;;;;;29.00;22.33;;;;;;;;4667989;30;28745;-94
2022/01/11 01:19:40;;;;;;;;;28.25;21.75;;;;;;;;4667514;30;29987;-94
2022/01/11 01:22:05;;;;;;;;;35.00;21.00;;;;;;;;4667701;30;28361;-95
2022/01/11 01:24:30;;;;;;;;;30.00;24.00;;;;;;;;4667996;30;28414;-93
2022/01/11 01:26:56;;;;;;;;;27.33;20.00;;;;;;;;4667129;30;28502;-93
2022/01/11 01:29:21;;;;;;;;;28.33;19.33;;;;;;;;4667501;30;30046;-94
2022/01/11 01:31:46;;;;;;;;;26.00;22.25;;;;;;;;4668417;30;28071;-94
2022/01/11 01:34:11;;;;;;;;;32.00;25.00;;;;;;;;4663393;30;28578;-93
2022/01/11 01:36:37;;;;;;;;;31.00;24.33;;;;;;;;4663646;30;28518;-94
2022/01/11 01:39:03;;;;;;;;;41.25;28.75;;;;;;;;4655238;30;29882;-93
2022/01/11 01:41:28;;;;;;;;;36.25;26.00;;;;;;;;4666705;30;28901;-94
2022/01/11 01:43:55;;;;;;;;;36.75;26.50;;;;;;;;4667620;30;28544;-94
2022/01/11 01:46:21;;;;;;;;;41.25;28.75;;;;;;;;4667065;30;28627;-94
2022/01/11 01:48:47;;;;;;;;;39.75;23.00;;;;;;;;4667518;30;29938;-94
2022/01/11 01:51:13;;;;;;;;;37.50;29.00;;;;;;;;4667605;30;28654;-94
2022/01/11 01:53:41;;;;;;;;;40.75;29.50;;;;;;;;4667981;30;28274;-94
2022/01/11 01:56:06;;;;;;;;;41.75;27.75;;;;;;;;4666349;30;28511;-95
2022/01/11 01:58:32;;;;;;;;;36.25;27.50;;;;;;;;4666930;30;30834;-93
2022/01/11 02:01:03;;;;;;;;;43.50;28.50;;;;;;;;4667342;30;29788;-93
2022/01/11 02:03:30;;;;;;;;;22.50;21.50;;;;;;;;4666989;30;28741;-94
2022/01/11 02:05:56;;;;;;;;;47.00;25.75;;;;;;;;4666554;30;29504;-95
2022/01/11 02:08:22;;;;;;;;;44.50;29.75;;;;;;;;4683123;30;30256;-94
2022/01/11 02:10:48;;;;;;;;;35.75;28.00;;;;;;;;4672092;30;28820;-94
2022/01/11 02:13:13;;;;;;;;;38.75;20.25;;;;;;;;4666902;30;28424;-94
2022/01/11 02:15:38;;;;;;;;;34.33;25.67;;;;;;;;4666795;30;29665;-95
2022/01/11 02:18:12;;;;;;;;;32.75;22.25;;;;;;;;4667190;30;29683;-93
2022/01/11 02:20:46;;;;;;;;;26.00;18.25;;;;;;;;4666763;30;28554;-93
2022/01/11 02:23:13;;;;;;;;;23.25;19.50;;;;;;;;4666277;30;28491;-94
2022/01/11 02:25:38;;;;;;;;;30.25;25.75;;;;;;;;4666447;30;28602;-94
2022/01/11 02:28:04;;;;;;;;;26.75;23.50;;;;;;;;4666844;30;29655;-93
2022/01/11 02:30:32;;;;;;;;;36.25;27.25;;;;;;;;4667099;30;28536;-94
2022/01/11 02:32:57;;;;;;;;;26.50;21.50;;;;;;;;4667180;30;28385;-93
2022/01/11 02:35:23;;;;;;;;;36.33;25.00;;;;;;;;4666254;30;28954;-94
2022/01/11 02:37:48;;;;;;;;;29.00;19.00;;;;;;;;4666841;30;30282;-94
2022/01/11 02:40:15;;;;;;;;;40.00;25.67;;;;;;;;4667585;30;28729;-93
2022/01/11 02:42:41;;;;;;;;;23.00;17.00;;;;;;;;4666307;30;28281;-95
2022/01/11 02:45:15;;;;;;;;;31.67;21.67;;;;;;;;4666512;30;28756;-94
2022/01/11 02:47:41;;;;;;;;;29.00;18.50;;;;;;;;4667235;30;29911;-93
2022/01/11 02:50:07;;;;;;;;;29.75;26.00;;;;;;;;4667471;30;28893;-94
2022/01/11 02:52:32;;;;;;;;;25.00;21.50;;;;;;;;4666722;30;28532;-93
2022/01/11 02:54:58;;;;;;;;;26.67;23.00;;;;;;;;4666841;30;28497;-93
2022/01/11 02:57:23;;;;;;;;;29.33;20.67;;;;;;;;4667032;30;29672;-93
2022/01/11 02:59:48;;;;;;;;;32.33;28.67;;;;;;;;4665792;30;28567;-92
2022/01/11 03:02:13;;;;;;;;;24.00;14.33;;;;;;;;4665941;30;28336;-92
2022/01/11 03:04:38;;;;;;;;;33.25;25.25;;;;;;;;4666583;30;28565;-94
2022/01/11 03:07:04;;;;;;;;;34.00;22.67;;;;;;;;4666212;30;29985;-92
2022/01/11 03:09:37;;;;;;;;;38.75;22.50;;;;;;;;4666540;30;28633;-92
2022/01/11 03:12:03;;;;;;;;;29.75;17.50;;;;;;;;4666101;30;28924;-92
2022/01/11 03:14:28;;;;;;;;;32.50;22.50;;;;;;;;4666763;30;28746;-93
2022/01/11 03:16:53;;;;;;;;;26.50;21.00;;;;;;;;4665499;30;30140;-93
2022/01/11 03:19:18;;;;;;;;;32.67;20.00;;;;;;;;4667377;30;28422;-92
2022/01/11 03:21:44;;;;;;;;;20.33;19.00;;;;;;;;4667034;30;28511;-92
2022/01/11 03:24:09;;;;;;;;;29.33;19.67;;;;;;;;4665354;30;28680;-93
2022/01/11 03:26:34;;;;;;;;;28.33;18.33;;;;;;;;4665843;30;30044;-93
2022/01/11 03:28:59;;;;;;;;;32.33;24.00;;;;;;;;4666177;30;28412;-92
2022/01/11 03:31:25;;;;;;;;;24.33;19.00;;;;;;;;4666288;30;27862;-94
2022/01/11 03:33:50;;;;;;;;;31.67;19.67;;;;;;;;4666051;30;28582;-94
2022/01/11 03:36:16;;;;;;;;;24.25;17.75;;;;;;;;4664942;30;29617;-94
2022/01/11 03:38:41;;;;;;;;;29.67;22.67;;;;;;;;4665323;30;29517;-92
2022/01/11 03:41:07;;;;;;;;;23.50;20.50;;;;;;;;4665324;30;28376;-92
2022/01/11 03:43:32;;;;;;;;;38.50;24.75;;;;;;;;4664896;30;28370;-92
2022/01/11 03:45:58;;;;;;;;;26.75;21.00;;;;;;;;4655935;30;30868;-93
2022/01/11 03:48:23;;;;;;;;;35.25;21.75;;;;;;;;4664067;30;29572;-93
2022/01/11 03:50:53;;;;;;;;;29.75;19.50;;;;;;;;4665863;30;28400;-93
2022/01/11 03:53:19;;;;;;;;;34.25;24.75;;;;;;;;4665642;30;28543;-93
2022/01/11 03:58:17;;;;;;;;;24.25;19.00;;;;;;;;4666094;30;28539;-93
2022/01/11 04:00:43;;;;;;;;;25.25;19.25;;;;;;;;4665938;30;28439;-92
2022/01/11 04:03:08;;;;;;;;;26.25;20.00;;;;;;;;4663636;30;28420;-92
2022/01/11 04:05:34;;;;;;;;;28.75;19.75;;;;;;;;4664921;30;31148;-92
2022/01/11 04:07:59;;;;;;;;;27.75;17.00;;;;;;;;4664827;30;29521;-93
2022/01/11 04:10:25;;;;;;;;;27.00;18.00;;;;;;;;4670380;30;27863;-93
2022/01/11 04:12:51;;;;;;;;;32.25;21.25;;;;;;;;4654011;30;29111;-92
2022/01/11 04:15:16;;;;;;;;;32.75;20.00;;;;;;;;4665318;30;29714;-92
2022/01/11 04:17:42;;;;;;;;;23.75;10.00;;;;;;;;4654729;30;28537;-93
2022/01/11 04:20:07;;;;;;;;;25.00;20.25;;;;;;;;4666475;30;28340;-93
2022/01/11 04:22:33;;;;;;;;;27.00;17.50;;;;;;;;4664956;30;28512;-91
2022/01/11 04:24:58;;;;;;;;;26.75;17.00;;;;;;;;4665473;30;28432;-93
2022/01/11 04:27:23;;;;;;;;;30.50;19.75;;;;;;;;4665547;30;29153;-92
2022/01/11 04:29:48;;;;;;;;;33.00;18.67;;;;;;;;4666139;30;27836;-94
2022/01/11 04:32:14;;;;;;;;;22.33;19.00;;;;;;;;4665262;30;28994;-92
2022/01/11 04:34:39;;;;;;;;;22.00;15.00;;;;;;;;4665494;30;29776;-92
2022/01/11 04:37:04;;;;;;;;;22.67;17.67;;;;;;;;4664660;30;28492;-93
2022/01/11 04:39:29;;;;;;;;;37.50;21.50;;;;;;;;4665455;30;28325;-91
2022/01/11 04:41:55;;;;;;;;;33.67;21.67;;;;;;;;4665486;30;28384;-92
2022/01/11 04:44:20;;;;;;;;;33.67;24.33;;;;;;;;4664389;30;29835;-92
2022/01/11 04:46:45;;;;;;;;;24.00;20.25;;;;;;;;4664596;30;28609;-92
2022/01/11 04:49:11;;;;;;;;;28.50;20.50;;;;;;;;4666713;30;28341;-93
2022/01/11 04:51:36;;;;;;;;;29.50;23.25;;;;;;;;4668218;30;28945;-91
2022/01/11 04:54:02;;;;;;;;;36.33;23.67;;;;;;;;4668503;30;30709;-92
2022/01/11 04:56:27;;;;;;;;;23.25;15.75;;;;;;;;4667577;30;29132;-92
2022/01/11 04:58:52;;;;;;;;;32.00;19.67;;;;;;;;4667769;30;28576;-93
2022/01/11 05:01:18;;;;;;;;;36.25;20.00;;;;;;;;4656912;30;28533;-92
2022/01/11 05:03:43;;;;;;;;;25.67;17.67;;;;;;;;4650398;30;29771;-93
2022/01/11 05:06:08;;;;;;;;;31.33;17.00;;;;;;;;4660299;30;28568;-92
2022/01/11 05:08:33;;;;;;;;;29.00;21.25;;;;;;;;4667506;30;28346;-92
2022/01/11 05:10:59;;;;;;;;;28.75;24.75;;;;;;;;4668298;30;28500;-92
2022/01/11 05:13:24;;;;;;;;;28.00;25.67;;;;;;;;4667237;30;30221;-92
2022/01/11 05:15:49;;;;;;;;;27.33;22.67;;;;;;;;4668367;30;28842;-92
2022/01/11 05:18:15;;;;;;;;;26.50;23.00;;;;;;;;4667192;30;28300;-91
2022/01/11 05:20:41;;;;;;;;;32.00;21.00;;;;;;;;4667873;30;28475;-92
2022/01/11 05:23:07;;;;;;;;;37.50;25.00;;;;;;;;4655714;30;30056;-91
2022/01/11 05:25:32;;;;;;;;;37.00;26.50;;;;;;;;4667024;30;28840;-93
2022/01/11 05:28:01;;;;;;;;;27.00;21.67;;;;;;;;4666705;30;28335;-92
2022/01/11 05:30:27;;;;;;;;;34.50;22.25;;;;;;;;4663821;30;28810;-93
2022/01/11 05:32:52;;;;;;;;;40.50;27.75;;;;;;;;4667141;30;29760;-92
2022/01/11 05:35:19;;;;;;;;;31.25;27.75;;;;;;;;4667734;30;28587;-92
2022/01/11 05:37:44;;;;;;;;;40.25;18.00;;;;;;;;4666392;30;28573;-92
2022/01/11 05:40:10;;;;;;;;;32.00;23.00;;;;;;;;4664378;30;28702;-91
2022/01/11 05:42:36;;;;;;;;;39.50;28.50;;;;;;;;4666400;30;30277;-91
2022/01/11 05:45:02;;;;;;;;;32.75;26.25;;;;;;;;4660904;30;28690;-92
2022/01/11 05:47:27;;;;;;;;;35.75;26.50;;;;;;;;4667290;30;28514;-92
2022/01/11 05:49:52;;;;;;;;;39.67;28.33;;;;;;;;4666764;30;28657;-92
2022/01/11 05:52:18;;;;;;;;;46.00;29.33;;;;;;;;4665762;30;28507;-91
2022/01/11 05:54:43;;;;;;;;;39.75;27.25;;;;;;;;4653870;30;29504;-86
2022/01/11 05:57:09;;;;;;;;;38.50;26.50;;;;;;;;4665103;30;28285;-89
2022/01/11 05:59:34;;;;;;;;;39.50;29.00;;;;;;;;4665896;30;28572;-92
2022/01/11 06:02:05;;;;;;;;;34.33;26.67;;;;;;;;4666666;30;30202;-92
2022/01/11 06:04:31;;;;;;;;;40.00;31.25;;;;;;;;4664952;30;28499;-89
2022/01/11 06:06:56;;;;;;;;;40.33;28.33;;;;;;;;4665717;30;28534;-93
2022/01/11 06:09:26;;;;;;;;;32.33;25.67;;;;;;;;4667588;30;28555;-94
2022/01/11 06:11:51;;;;;;;;;33.50;26.75;;;;;;;;4664838;30;30094;-94
2022/01/11 06:14:16;;;;;;;;;40.50;24.50;;;;;;;;4663314;30;28325;-92
2022/01/11 06:16:42;;;;;;;;;46.33;26.67;;;;;;;;4667920;30;28624;-93
2022/01/11 06:19:07;;;;;;;;;40.33;30.00;;;;;;;;4667502;30;28695;-94
2022/01/11 06:21:32;;;;;;;;;41.33;27.33;;;;;;;;4668785;30;30714;-86
2022/01/11 06:23:57;;;;;;;;;40.00;29.67;;;;;;;;4665931;30;28321;-83
2022/01/11 06:26:23;;;;;;;;;26.00;16.00;;;;;;;;4667209;30;28475;-87
2022/01/11 06:28:48;;;;;;;;;41.00;24.67;;;;;;;;4666981;30;28362;-85
2022/01/11 06:31:13;;;;;;;;;44.67;30.67;;;;;;;;4665727;30;29275;-86
2022/01/11 06:33:39;;;;;;;;;46.00;32.25;;;;;;;;4671603;30;28407;-87
2022/01/11 06:36:09;;;;;;;;;46.25;30.75;;;;;;;;4668142;30;28585;-86
2022/01/11 06:38:35;;;;;;;;;42.00;27.75;;;;;;;;4666597;30;28339;-85
2022/01/11 06:41:00;;;;;;;;;32.25;26.75;;;;;;;;4666506;30;28617;-85
2022/01/11 06:43:25;;;;;;;;;44.67;31.67;;;;;;;;4666176;30;28466;-83
2022/01/11 06:45:50;;;;;;;;;49.67;33.00;;;;;;;;4661313;30;28577;-82
2022/01/11 06:48:16;;;;;;;;;48.33;32.33;;;;;;;;4651618;30;28341;-83
2022/01/11 06:50:41;;;;;;;;;39.67;31.00;;;;;;;;4651323;30;28328;-84
2022/01/11 06:53:07;;;;;;;;;40.33;26.67;;;;;;;;4652132;30;28371;-84
2022/01/11 06:55:32;;;;;;;;;36.75;30.75;;;;;;;;4659074;30;28543;-85
2022/01/11 06:57:57;;;;;;;;;49.67;33.00;;;;;;;;4667851;30;28325;-85
2022/01/11 07:00:22;;;;;;;;;49.25;31.25;;;;;;;;4657118;30;28585;-85
2022/01/11 07:02:50;;;;;;;;;44.00;31.00;;;;;;;;4665835;30;28479;-85
2022/01/11 07:05:15;;;;;;;;;44.50;29.75;;;;;;;;4667021;30;28467;-85
2022/01/11 07:07:40;;;;;;;;;44.75;27.50;;;;;;;;4664103;30;28666;-83
2022/01/11 07:10:06;;;;;;;;;51.67;29.33;;;;;;;;4665541;30;30090;-89
2022/01/11 07:12:32;;;;;;;;;49.75;27.50;;;;;;;;4665456;30;28609;-83
2022/01/11 07:14:57;;;;;;;;;30.25;19.25;;;;;;;;4666603;30;28320;-83
2022/01/11 07:17:23;;;;;;;;;41.33;33.00;;;;;;;;4666323;30;28380;-83
2022/01/11 07:19:48;;;;;;;;;39.25;30.75;;;;;;;;4666481;30;28348;-83
2022/01/11 07:22:13;;;;;;;;;43.00;32.67;;;;;;;;4665247;30;28597;-84
2022/01/11 07:24:38;;;;;;;;;45.67;29.67;;;;;;;;4666629;30;28474;-83
2022/01/11 07:27:04;;;;;;;;;44.67;32.00;;;;;;;;4666089;30;28606;-82
2022/01/11 07:29:29;;;;;;;;;40.75;33.75;;;;;;;;4664776;30;30131;-83
2022/01/11 07:31:54;;;;;;;;;45.00;30.67;;;;;;;;4666699;30;28297;-84
2022/01/11 07:34:20;;;;;;;;;44.33;31.67;;;;;;;;4666124;30;28379;-83
2022/01/11 07:36:45;;;;;;;;;43.67;31.33;;;;;;;;4664793;30;28420;-84
2022/01/11 07:39:12;;;;;;;;;51.25;31.50;;;;;;;;4665857;30;28548;-82
2022/01/11 07:41:38;;;;;;;;;37.75;21.75;;;;;;;;4666245;30;28465;-86
2022/01/11 07:44:03;;;;;;;;;34.50;32.50;;;;;;;;4664788;30;28232;-88
2022/01/11 07:46:28;;;;;;;;;38.00;29.75;;;;;;;;4666330;30;28537;-83
2022/01/11 07:48:53;;;;;;;;;47.50;28.75;;;;;;;;4665625;30;28506;-83
2022/01/11 07:51:19;;;;;;;;;47.33;34.67;;;;;;;;4663775;30;28498;-83
2022/01/11 07:53:44;;;;;;;;;46.00;36.33;;;;;;;;4665730;30;28375;-83
2022/01/11 07:56:09;;;;;;;;;43.00;33.00;;;;;;;;4665184;30;28611;-83
2022/01/11 07:58:35;;;;;;;;;46.00;34.50;;;;;;;;4663957;30;28669;-83
2022/01/11 08:01:00;;;;;;;;;48.00;33.75;;;;;;;;4660602;30;28476;-83
2022/01/11 08:03:25;;;;;;;;;44.75;37.25;;;;;;;;4665388;30;28633;-84
2022/01/11 08:05:52;;;;;;;;;48.00;34.67;;;;;;;;4673931;30;28420;-85
2022/01/11 08:08:17;;;;;;;;;55.25;34.75;;;;;;;;4664305;30;28484;-85
2022/01/11 08:10:42;;;;;;;;;51.50;37.50;;;;;;;;4665185;30;28273;-85
2022/01/11 08:13:10;;;;;;;;;50.67;30.33;;;;;;;;4664747;30;28305;-85
2022/01/11 08:15:35;;;;;;;;;52.25;26.75;;;;;;;;4666024;30;28328;-85
2022/01/11 08:18:01;;;;;;;;;44.25;34.25;;;;;;;;4665852;30;28477;-85
2022/01/11 08:20:26;;;;;;;;;56.00;35.25;;;;;;;;4665988;30;28356;-85
2022/01/11 08:22:53;;;;;;;;;49.33;38.00;;;;;;;;4667042;30;28416;-84
2022/01/11 08:25:19;;;;;;;;;50.50;36.75;;;;;;;;4668847;30;28423;-85
2022/01/11 08:27:44;;;;;;;;;53.75;35.00;;;;;;;;4668724;30;29172;-85
2022/01/11 08:30:10;;;;;;;;;57.50;34.50;;;;;;;;4669113;30;28588;-84
2022/01/11 08:32:35;;;;;;;;;60.50;41.25;;;;;;;;4668421;30;28523;-84
2022/01/11 08:35:00;;;;;;;;;51.75;38.00;;;;;;;;4669097;30;28435;-84
2022/01/11 08:37:26;;;;;;;;;50.25;32.50;;;;;;;;4668436;30;28415;-85
2022/01/11 08:39:51;;;;;;;;;45.33;32.67;;;;;;;;4667493;30;29029;-85
2022/01/11 08:42:17;;;;;;;;;53.25;40.25;;;;;;;;4667222;30;28566;-84
2022/01/11 08:44:43;;;;;;;;;44.75;28.75;;;;;;;;4667817;30;28537;-84
2022/01/11 08:47:08;;;;;;;;;44.00;24.25;;;;;;;;4667626;30;28276;-85
2022/01/11 08:49:34;;;;;;;;;46.00;31.50;;;;;;;;4667440;30;28357;-84
2022/01/11 08:51:59;;;;;;;;;41.00;35.50;;;;;;;;4668092;30;28308;-85
2022/01/11 08:54:24;;;;;;;;;51.00;36.33;;;;;;;;4667392;30;28951;-84
2022/01/11 08:56:52;;;;;;;;;50.00;35.50;;;;;;;;4667685;30;28592;-85
2022/01/11 08:59:17;;;;;;;;;49.00;31.75;;;;;;;;4668559;30;28821;-84
2022/01/11 09:01:42;;;;;;;;;58.25;37.75;;;;;;;;4667265;30;28404;-85
2022/01/11 09:04:08;;;;;;;;;45.50;35.25;;;;;;;;4668266;30;28626;-84
2022/01/11 09:06:33;;;;;;;;;48.33;29.67;;;;;;;;4666779;30;28759;-85
2022/01/11 09:08:58;;;;;;;;;57.00;41.67;;;;;;;;4668027;30;28549;-84
2022/01/11 09:11:23;;;;;;;;;57.25;43.25;;;;;;;;4668566;30;28518;-84
2022/01/11 09:13:49;;;;;;;;;50.33;37.67;;;;;;;;4667817;30;28435;-85
2022/01/11 09:16:15;;;;;;;;;51.50;40.00;;;;;;;;4668936;30;28404;-85
2022/01/11 09:18:41;;;;;;;;;67.00;43.50;;;;;;;;4669630;30;28421;-84
2022/01/11 09:21:06;;;;;;;;;64.00;44.00;;;;;;;;4667950;30;28613;-84
2022/01/11 09:23:32;;;;;;;;;56.25;36.50;;;;;;;;4668895;30;28508;-84
2022/01/11 09:25:57;;;;;;;;;59.25;42.00;;;;;;;;4667742;30;28455;-84
2022/01/11 09:28:23;;;;;;;;;52.00;37.75;;;;;;;;4667921;30;28357;-84
2022/01/11 09:30:48;;;;;;;;;58.50;41.75;;;;;;;;4668848;30;28312;-84
2022/01/11 09:33:14;;;;;;;;;54.50;39.50;;;;;;;;4666512;30;29472;-84
2022/01/11 09:35:39;;;;;;;;;53.50;37.75;;;;;;;;4668468;30;29679;-84
2022/01/11 09:38:05;;;;;;;;;60.75;37.00;;;;;;;;4668226;30;28333;-83
2022/01/11 09:40:30;;;;;;;;;61.00;38.00;;;;;;;;4668715;30;28494;-84
2022/01/11 09:42:55;;;;;;;;;58.33;37.00;;;;;;;;4674268;30;28426;-83
2022/01/11 09:45:21;;;;;;;;;58.25;36.50;;;;;;;;4689484;30;28121;-83
2022/01/11 09:47:47;;;;;;;;;57.50;44.00;;;;;;;;4687560;30;28814;-83
2022/01/11 09:50:13;;;;;;;;;59.50;41.00;;;;;;;;4690691;30;27813;-83
2022/01/11 09:52:39;;;;;;;;;56.50;36.75;;;;;;;;4687220;30;27903;-83
2022/01/11 09:55:05;;;;;;;;;59.00;45.75;;;;;;;;4686631;30;28919;-83
2022/01/11 09:57:30;;;;;;;;;70.75;43.25;;;;;;;;4682180;30;28021;-84
2022/01/11 09:59:56;;;;;;;;;56.00;40.33;;;;;;;;4686208;30;27759;-83
2022/01/11 10:02:21;;;;;;;;;67.33;45.33;;;;;;;;4686586;30;28317;-84
2022/01/11 10:04:54;;;;;;;;;64.50;42.25;;;;;;;;4684138;30;28342;-84
2022/01/11 10:07:27;;;;;;;;;62.50;43.75;;;;;;;;4673382;30;28433;-84
2022/01/11 10:09:53;;;;;;;;;61.00;43.50;;;;;;;;4667356;30;28364;-84
2022/01/11 10:12:18;;;;;;;;;64.50;40.75;;;;;;;;4666866;30;28562;-84
2022/01/11 10:14:48;;;;;;;;;60.25;37.25;;;;;;;;4655776;30;28458;-84
2022/01/11 10:17:22;;;;;;;;;48.25;33.50;;;;;;;;4667304;30;28474;-84
2022/01/11 10:19:50;;;;;;;;;63.25;38.25;;;;;;;;4667963;30;28300;-84
2022/01/11 10:22:20;;;;;;;;;54.75;38.25;;;;;;;;4667380;30;28340;-84
2022/01/11 10:24:50;;;;;;;;;44.25;32.50;;;;;;;;4667204;30;28489;-84
2022/01/11 10:27:20;;;;;;;;;53.50;39.25;;;;;;;;4665678;30;29073;-84
2022/01/11 10:29:50;;;;;;;;;61.50;32.75;;;;;;;;4667269;30;28589;-84
2022/01/11 10:32:17;;;;;;;;;53.00;37.25;;;;;;;;4667286;30;28352;-84
2022/01/11 10:34:43;;;;;;;;;45.75;37.50;;;;;;;;4667023;30;29138;-84
2022/01/11 10:37:10;;;;;;;;;52.50;39.50;;;;;;;;4665765;30;28531;-82
2022/01/11 10:39:36;;;;;;;;;49.25;37.00;;;;;;;;4666116;30;28464;-82
2022/01/11 10:42:03;;;;;;;;;51.50;37.25;;;;;;;;4665716;30;28581;-82
2022/01/11 10:44:41;;;;;;;;;46.00;33.50;;;;;;;;4667184;30;28278;-82
2022/01/11 10:47:06;;;;;;;;;40.75;30.50;;;;;;;;4666059;30;28336;-82
2022/01/11 10:49:32;;;;;;;;;60.75;40.00;;;;;;;;4667116;30;28339;-82
2022/01/11 10:52:17;;;;;;;;;61.33;42.00;;;;;;;;4666248;30;28458;-82
2022/01/11 10:54:43;;;;;;;;;54.00;39.25;;;;;;;;4666234;30;29684;-82
2022/01/11 10:57:20;;;;;;;;;51.50;34.50;;;;;;;;4665237;30;28515;-84
2022/01/11 11:00:04;;;;;;;;;53.75;39.50;;;;;;;;4666906;30;28415;-83
2022/01/11 11:02:29;;;;;;;;;45.00;38.75;;;;;;;;4666981;30;28403;-84
2022/01/11 11:04:55;;;;;;;;;46.67;36.00;;;;;;;;4665358;30;28395;-84
2022/01/11 11:07:23;;;;;;;;;51.50;35.25;;;;;;;;4666773;30;28406;-85
2022/01/11 11:09:50;;;;;;;;;60.75;39.25;;;;;;;;4667157;30;28495;-85
2022/01/11 11:12:23;;;;;;;;;50.50;35.50;;;;;;;;4666809;30;28482;-85
2022/01/11 11:14:52;;;;;;;;;56.75;38.00;;;;;;;;4667006;30;28610;-84
2022/01/11 11:17:24;;;;;;;;;42.50;35.75;;;;;;;;4666941;30;29004;-84
2022/01/11 11:19:56;;;;;;;;;45.75;37.75;;;;;;;;4667599;30;28412;-84
2022/01/11 11:22:21;;;;;;;;;43.25;32.75;;;;;;;;4665195;30;29139;-84
2022/01/11 11:24:46;;;;;;;;;52.33;43.00;;;;;;;;4666899;30;28332;-84
2022/01/11 11:27:11;;;;;;;;;62.00;42.33;;;;;;;;4665131;30;28494;-84
2022/01/11 11:29:37;;;;;;;;;60.33;40.67;;;;;;;;4665618;30;28547;-84
2022/01/11 11:32:02;;;;;;;;;39.75;23.00;;;;;;;;4665251;30;28546;-84
2022/01/11 11:34:28;;;;;;;;;52.00;38.75;;;;;;;;4665392;30;29264;-84
2022/01/11 11:36:53;;;;;;;;;55.75;35.50;;;;;;;;4665810;30;28625;-82
2022/01/11 11:39:20;;;;;;;;;54.25;39.00;;;;;;;;4666128;30;28535;-84
2022/01/11 11:41:47;;;;;;;;;59.25;42.00;;;;;;;;4664040;30;28297;-84
2022/01/11 11:44:14;;;;;;;;;59.50;38.00;;;;;;;;4665964;30;28349;-84
2022/01/11 11:46:43;;;;;;;;;60.00;40.50;;;;;;;;4665182;30;28846;-84
2022/01/11 11:49:08;;;;;;;;;59.25;43.75;;;;;;;;4666320;30;28345;-84
2022/01/11 11:51:40;;;;;;;;;53.33;34.33;;;;;;;;4666391;30;28327;-84
2022/01/11 11:54:10;;;;;;;;;57.75;40.00;;;;;;;;4664643;30;30785;-83
2022/01/11 11:56:35;;;;;;;;;57.50;42.50;;;;;;;;4665948;30;28409;-83
2022/01/11 11:59:06;;;;;;;;;59.00;40.75;;;;;;;;4664584;30;28612;-84
2022/01/11 12:01:34;;;;;;;;;36.00;26.75;;;;;;;;4666162;30;28472;-84
2022/01/11 12:03:59;;;;;;;;;62.75;42.75;;;;;;;;4666153;30;28538;-84
2022/01/11 12:06:25;;;;;;;;;62.00;44.75;;;;;;;;4666196;30;28427;-84
2022/01/11 12:08:59;;;;;;;;;59.25;42.75;;;;;;;;4664937;30;28373;-84
2022/01/11 12:11:33;;;;;;;;;61.50;43.75;;;;;;;;4651305;30;28335;-83
2022/01/11 12:13:58;;;;;;;;;50.75;40.75;;;;;;;;4647445;30;30556;-83
2022/01/11 12:16:23;;;;;;;;;55.00;41.67;;;;;;;;4648336;30;28346;-83
2022/01/11 12:18:49;;;;;;;;;58.00;40.33;;;;;;;;4649418;30;28353;-83
2022/01/11 12:21:14;;;;;;;;;60.00;42.50;;;;;;;;4648908;30;28593;-83
2022/01/11 12:23:39;;;;;;;;;54.67;33.00;;;;;;;;4647013;30;30102;-83
2022/01/11 12:26:16;;;;;;;;;46.00;35.33;;;;;;;;4648295;30;28305;-83
2022/01/11 12:28:42;;;;;;;;;39.50;33.50;;;;;;;;4648485;30;28500;-83
2022/01/11 12:31:27;;;;;;;;;56.75;34.75;;;;;;;;4648794;30;28248;-83
2022/01/11 12:33:53;;;;;;;;;54.75;38.25;;;;;;;;4649873;30;29228;-83
2022/01/11 12:36:19;;;;;;;;;50.25;39.00;;;;;;;;4648395;30;28499;-83
2022/01/11 12:39:01;;;;;;;;;57.00;36.25;;;;;;;;4648759;30;28357;-84
2022/01/11 12:41:29;;;;;;;;;59.50;42.00;;;;;;;;4649149;30;28943;-84
2022/01/11 12:44:14;;;;;;;;;61.75;39.25;;;;;;;;4645199;30;29847;-83
2022/01/11 12:46:55;;;;;;;;;62.50;39.75;;;;;;;;4637644;30;28811;-83
2022/01/11 12:49:22;;;;;;;;;57.75;39.25;;;;;;;;4648473;30;28337;-83
2022/01/11 12:51:51;;;;;;;;;55.75;34.00;;;;;;;;4650717;30;28464;-82
2022/01/11 12:54:22;;;;;;;;;59.75;43.25;;;;;;;;4651555;30;28407;-80
2022/01/11 12:56:52;;;;;;;;;58.00;40.50;;;;;;;;4651152;30;28572;-82
2022/01/11 12:59:18;;;;;;;;;55.75;40.25;;;;;;;;4652318;30;28481;-82
2022/01/11 13:01:43;;;;;;;;;58.00;37.25;;;;;;;;4652491;30;28317;-81
2022/01/11 13:04:09;;;;;;;;;46.00;37.75;;;;;;;;4648306;30;29027;-83
2022/01/11 13:06:35;;;;;;;;;62.67;43.00;;;;;;;;4652385;30;28461;-82
2022/01/11 13:09:04;;;;;;;;;43.25;34.75;;;;;;;;4652686;30;28438;-82
2022/01/11 13:11:29;;;;;;;;;57.00;38.25;;;;;;;;4653376;30;28990;-81
2022/01/11 13:14:47;;;;;;;;;53.67;37.33;;;;;;;;4653977;30;28562;-81
2022/01/11 13:16:49;;;;;;;;;59.25;39.75;;;;;;;;4647588;30;27912;-82
2022/01/11 13:19:15;;;;;;;;;53.25;39.00;;;;;;;;4654171;30;28445;-81
2022/01/11 13:21:41;;;;;;;;;51.25;36.75;;;;;;;;4654493;30;28481;-80
2022/01/11 13:27:11;;;;;;;;;50.50;37.00;;;;;;;;4650543;30;28689;-84
2022/01/11 13:29:36;;;;;;;;;51.00;39.50;;;;;;;;4655654;30;28581;-81
2022/01/11 13:32:02;;;;;;;;;54.50;39.75;;;;;;;;4654782;30;28379;-81
2022/01/11 13:34:27;;;;;;;;;47.75;36.25;;;;;;;;4654110;30;29039;-83
2022/01/11 13:36:56;;;;;;;;;47.00;36.67;;;;;;;;4649659;30;29926;-83
2022/01/11 13:39:22;;;;;;;;;50.75;36.25;;;;;;;;4651102;30;28258;-83
2022/01/11 13:41:55;;;;;;;;;51.25;37.00;;;;;;;;4650657;30;28490;-83
2022/01/11 13:44:23;;;;;;;;;49.25;39.00;;;;;;;;4651014;30;28278;-83
2022/01/11 13:46:50;;;;;;;;;56.25;39.25;;;;;;;;4650842;30;28613;-83
2022/01/11 13:49:16;;;;;;;;;58.50;39.75;;;;;;;;4650771;30;28361;-84
2022/01/11 13:51:43;;;;;;;;;48.25;39.00;;;;;;;;4650712;30;28483;-86
2022/01/11 13:54:09;;;;;;;;;46.75;37.50;;;;;;;;4648649;30;29877;-86
2022/01/11 13:56:35;;;;;;;;;54.50;40.25;;;;;;;;4648032;30;28405;-87
2022/01/11 13:59:02;;;;;;;;;54.25;34.75;;;;;;;;4650700;30;28391;-87
2022/01/11 14:01:28;;;;;;;;;54.75;41.00;;;;;;;;4652023;30;28499;-87
2022/01/11 14:04:07;;;;;;;;;57.00;34.00;;;;;;;;4651741;30;28361;-86
2022/01/11 14:07:00;;;;;;;;;49.75;39.00;;;;;;;;4652146;30;28684;-87
2022/01/11 14:09:32;;;;;;;;;58.75;40.75;;;;;;;;4637960;30;28021;-87
2022/01/11 14:12:13;;;;;;;;;59.75;40.75;;;;;;;;4651566;30;28626;-86
2022/01/11 14:14:39;;;;;;;;;53.50;39.25;;;;;;;;4644939;30;28311;-87
2022/01/11 14:17:15;;;;;;;;;51.00;39.25;;;;;;;;4650252;30;27833;-87
2022/01/11 14:19:47;;;;;;;;;62.50;43.75;;;;;;;;4651527;30;28381;-86
2022/01/11 14:22:13;;;;;;;;;57.00;39.25;;;;;;;;4651475;30;28353;-86